createdAt,value
2022-10-10T00:01:22.497Z,3.22
2022-10-10T00:03:49.731Z,2.28
2022-10-10T00:06:17.035Z,2.40
2022-10-10T00:08:44.569Z,2.35
2022-10-10T00:11:12.176Z,2.63
2022-10-10T00:13:39.729Z,2.00
2022-10-10T00:16:07.409Z,1.92
2022-10-10T00:18:34.906Z,1.90
2022-10-10T00:21:02.080Z,2.17
2022-10-10T00:23:29.293Z,2.30
2022-10-10T00:25:56.504Z,2.03
2022-10-10T00:28:23.823Z,2.58
2022-10-10T00:30:51.195Z,2.70
2022-10-10T00:33:18.611Z,2.47
2022-10-10T00:35:45.769Z,2.25
2022-10-10T00:38:13.827Z,2.30
2022-10-10T00:40:48.783Z,2.13
2022-10-10T00:43:17.061Z,2.80
2022-10-10T00:45:45.163Z,2.20
2022-10-10T00:48:15.119Z,2.40
2022-10-10T00:50:45.266Z,2.60
2022-10-10T00:53:13.956Z,2.20
2022-10-10T00:55:41.171Z,1.92
2022-10-10T00:58:09.275Z,2.33
2022-10-10T01:00:36.669Z,2.42
2022-10-10T01:03:03.908Z,2.20
2022-10-10T01:05:31.698Z,2.15
2022-10-10T01:07:59.330Z,2.05
2022-10-10T01:10:26.652Z,2.08
2022-10-10T01:12:54.024Z,2.10
2022-10-10T01:15:25.486Z,2.28
2022-10-10T01:18:02.057Z,2.03
2022-10-10T01:20:41.379Z,2.17
2022-10-10T01:23:27.466Z,1.55
2022-10-10T01:25:54.601Z,1.88
2022-10-10T01:28:35.036Z,1.83
2022-10-10T01:31:03.055Z,1.80
2022-10-10T01:33:37.322Z,1.90
2022-10-10T01:36:07.541Z,2.15
2022-10-10T01:38:41.662Z,2.05
2022-10-10T01:41:11.322Z,1.95
2022-10-10T01:43:38.477Z,1.92
2022-10-10T01:46:16.234Z,2.05
2022-10-10T01:48:45.072Z,2.28
2022-10-10T01:51:30.750Z,2.08
2022-10-10T01:53:57.865Z,2.05
2022-10-10T01:56:40.804Z,2.25
2022-10-10T01:59:26.856Z,2.00
2022-10-10T02:02:11.616Z,2.17
2022-10-10T02:04:41.589Z,2.22
2022-10-10T02:07:15.586Z,3.10
2022-10-10T02:09:43.747Z,2.33
2022-10-10T02:12:11.731Z,2.17
2022-10-10T02:14:41.250Z,2.33
2022-10-10T02:17:09.514Z,2.25
2022-10-10T02:19:38.340Z,2.05
2022-10-10T02:22:06.738Z,2.17
2022-10-10T02:24:35.305Z,2.20
2022-10-10T02:27:05.302Z,2.00
2022-10-10T02:29:37.231Z,1.98
2022-10-10T02:32:12.905Z,2.10
2022-10-10T02:34:41.899Z,2.22
2022-10-10T02:37:12.566Z,2.25
2022-10-10T02:39:51.133Z,2.13
2022-10-10T02:42:19.832Z,2.38
2022-10-10T02:44:47.705Z,2.13
2022-10-10T02:47:14.960Z,2.17
2022-10-10T02:49:42.229Z,2.03
2022-10-10T02:52:09.482Z,2.45
2022-10-10T02:54:36.819Z,2.38
2022-10-10T02:57:03.967Z,2.10
2022-10-10T02:59:31.097Z,2.78
2022-10-10T03:01:58.337Z,2.58
2022-10-10T03:04:25.791Z,2.42
2022-10-10T03:06:53.745Z,2.60
2022-10-10T03:09:20.997Z,2.38
2022-10-10T03:11:48.142Z,2.20
2022-10-10T03:14:15.338Z,2.85
2022-10-10T03:16:42.626Z,2.45
2022-10-10T03:19:09.839Z,2.47
2022-10-10T03:21:37.358Z,2.72
2022-10-10T03:24:05.808Z,2.35
2022-10-10T03:26:33.352Z,2.63
2022-10-10T03:29:01.957Z,2.67
2022-10-10T03:31:29.376Z,2.17
2022-10-10T03:33:56.530Z,2.80
2022-10-10T03:36:23.755Z,2.90
2022-10-10T03:38:51.030Z,2.50
2022-10-10T03:41:18.162Z,2.50
2022-10-10T03:43:45.352Z,2.35
2022-10-10T03:46:15.995Z,2.35
2022-10-10T03:48:43.729Z,2.50
2022-10-10T03:51:10.989Z,2.53
2022-10-10T03:53:38.209Z,2.25
2022-10-10T03:56:05.571Z,2.53
2022-10-10T03:58:32.770Z,2.40
2022-10-10T04:01:01.207Z,2.28
2022-10-10T04:03:28.947Z,2.92
2022-10-10T04:05:56.339Z,2.30
2022-10-10T04:08:24.050Z,2.30
2022-10-10T04:10:52.447Z,2.63
2022-10-10T04:13:20.168Z,2.47
2022-10-10T04:15:50.407Z,1.90
2022-10-10T04:18:17.667Z,2.40
2022-10-10T04:20:44.822Z,2.50
2022-10-10T04:23:12.143Z,2.25
2022-10-10T04:25:39.290Z,2.70
2022-10-10T04:28:06.483Z,2.80
2022-10-10T04:30:35.238Z,2.45
2022-10-10T04:33:02.421Z,2.85
2022-10-10T04:35:29.578Z,2.38
2022-10-10T04:37:56.875Z,2.70
2022-10-10T04:40:26.775Z,2.42
2022-10-10T04:42:54.782Z,1.92
2022-10-10T04:45:22.298Z,2.55
2022-10-10T04:47:49.529Z,2.58
2022-10-10T04:50:16.685Z,2.60
2022-10-10T04:52:44.041Z,2.70
2022-10-10T04:55:11.475Z,2.60
2022-10-10T04:57:38.625Z,2.55
2022-10-10T05:00:06.774Z,2.60
2022-10-10T05:02:33.977Z,2.78
2022-10-10T05:05:01.123Z,2.45
2022-10-10T05:07:28.402Z,2.15
2022-10-10T05:09:55.562Z,2.40
2022-10-10T05:12:22.712Z,2.75
2022-10-10T05:14:50.019Z,2.33
2022-10-10T05:17:17.295Z,2.40
2022-10-10T05:19:44.502Z,2.42
2022-10-10T05:22:11.782Z,2.92
2022-10-10T05:24:40.307Z,2.63
2022-10-10T05:27:07.510Z,2.28
2022-10-10T05:29:34.829Z,2.47
2022-10-10T05:32:05.373Z,3.28
2022-10-10T05:34:35.019Z,3.63
2022-10-10T05:37:02.155Z,4.50
2022-10-10T05:39:29.302Z,5.47
2022-10-10T05:41:56.731Z,4.20
2022-10-10T05:44:23.944Z,7.22
2022-10-10T05:46:51.131Z,6.20
2022-10-10T05:49:18.523Z,4.80
2022-10-10T05:51:45.679Z,3.72
2022-10-10T05:54:13.046Z,3.05
2022-10-10T05:56:40.357Z,3.00
2022-10-10T05:59:07.489Z,2.50
2022-10-10T06:01:34.891Z,3.15
2022-10-10T06:04:02.218Z,2.65
2022-10-10T06:06:29.406Z,3.35
2022-10-10T06:08:56.594Z,2.97
2022-10-10T06:11:25.244Z,3.28
2022-10-10T06:13:54.424Z,2.30
2022-10-10T06:16:25.268Z,2.60
2022-10-10T06:18:52.834Z,2.75
2022-10-10T06:21:20.137Z,2.60
2022-10-10T06:23:47.462Z,2.55
2022-10-10T06:51:18.945Z,2.55
2022-10-10T06:53:46.448Z,2.70
2022-10-10T06:56:17.908Z,3.60
2022-10-10T06:58:45.254Z,2.53
2022-10-10T07:01:12.796Z,2.72
2022-10-10T07:03:40.025Z,2.40
2022-10-10T07:06:09.538Z,3.00
2022-10-10T07:08:36.761Z,2.65
2022-10-10T07:11:04.147Z,2.72
2022-10-10T07:13:31.714Z,2.50
2022-10-10T07:15:59.199Z,2.63
2022-10-10T07:18:26.401Z,2.53
2022-10-10T07:20:57.483Z,2.90
2022-10-10T07:23:24.639Z,2.67
2022-10-10T07:25:52.222Z,2.60
2022-10-10T07:28:19.916Z,2.38
2022-10-10T07:30:47.158Z,2.65
2022-10-10T07:33:15.091Z,2.70
2022-10-10T07:35:42.436Z,2.25
2022-10-10T07:38:11.454Z,2.10
2022-10-10T07:40:40.696Z,2.03
2022-10-10T07:43:07.951Z,2.00
2022-10-10T07:45:36.498Z,2.15
2022-10-10T07:48:04.194Z,2.15
2022-10-10T07:50:31.458Z,1.65
2022-10-10T07:52:58.629Z,1.75
2022-10-10T07:55:25.792Z,2.20
2022-10-10T07:57:53.638Z,2.58
2022-10-10T08:00:20.962Z,1.80
2022-10-10T08:02:48.093Z,2.05
2022-10-10T08:05:15.432Z,2.22
2022-10-10T08:07:42.602Z,2.10
2022-10-10T08:10:10.169Z,1.90
2022-10-10T08:12:37.404Z,1.90
2022-10-10T08:15:05.875Z,1.80
2022-10-10T08:17:33.549Z,1.95
2022-10-10T08:20:00.737Z,2.05
2022-10-10T08:22:27.904Z,2.17
2022-10-10T08:24:55.109Z,1.80
2022-10-10T08:27:22.292Z,1.70
2022-10-10T08:29:49.473Z,1.30
2022-10-10T08:32:16.612Z,1.52
2022-10-10T08:34:43.860Z,1.70
2022-10-10T08:37:11.023Z,1.42
2022-10-10T08:39:38.129Z,1.67
2022-10-10T08:42:05.337Z,1.42
2022-10-10T08:44:32.424Z,1.63
2022-10-10T08:47:18.129Z,1.83
2022-10-10T08:49:47.466Z,1.17
2022-10-10T08:52:17.255Z,1.70
2022-10-10T08:54:45.634Z,1.98
2022-10-10T08:57:30.300Z,2.03
2022-10-10T09:00:00.771Z,1.13
2022-10-10T09:02:43.991Z,1.30
2022-10-10T09:05:22.600Z,1.23
2022-10-10T09:08:01.717Z,1.25
2022-10-10T09:10:33.013Z,1.48
2022-10-10T09:13:03.121Z,1.00
2022-10-10T09:15:34.866Z,1.73
2022-10-10T09:18:19.230Z,1.10
2022-10-10T09:20:54.728Z,1.10
2022-10-10T09:23:22.321Z,1.30
2022-10-10T09:25:55.030Z,1.10
2022-10-10T09:28:22.176Z,1.10
2022-10-10T09:30:55.448Z,1.83
2022-10-10T09:33:25.619Z,1.25
2022-10-10T09:35:54.047Z,1.50
2022-10-10T09:38:50.663Z,1.20
2022-10-10T09:41:21.222Z,1.58
2022-10-10T09:43:48.497Z,1.10
2022-10-10T09:46:15.817Z,1.27
2022-10-10T09:48:43.780Z,0.90
2022-10-10T09:51:15.290Z,1.20
2022-10-10T09:53:43.058Z,1.33
2022-10-10T09:56:16.685Z,1.33
2022-10-10T09:58:45.556Z,1.30
2022-10-10T10:01:13.685Z,1.33
2022-10-10T10:03:41.173Z,1.13
2022-10-10T10:06:12.569Z,1.00
2022-10-10T10:08:39.798Z,1.38
2022-10-10T10:11:07.040Z,1.38
2022-10-10T10:13:35.819Z,1.08
2022-10-10T10:16:04.878Z,0.98
2022-10-10T10:18:32.310Z,1.02
2022-10-10T10:21:08.522Z,1.00
2022-10-10T10:23:37.266Z,1.00
2022-10-10T10:26:37.022Z,1.10
2022-10-10T10:29:04.142Z,1.17
2022-10-10T10:31:44.786Z,1.08
2022-10-10T10:34:23.836Z,1.13
2022-10-10T10:36:55.900Z,1.20
2022-10-10T10:39:30.122Z,1.35
2022-10-10T10:41:59.414Z,1.00
2022-10-10T10:44:59.139Z,0.90
2022-10-10T10:47:40.323Z,0.70
2022-10-10T10:50:24.171Z,1.20
2022-10-10T10:52:58.124Z,0.80
2022-10-10T10:55:25.569Z,1.02
2022-10-10T10:58:37.116Z,1.10
2022-10-10T11:01:23.437Z,1.00
2022-10-10T11:05:17.530Z,1.77
2022-10-10T11:07:17.877Z,0.75
2022-10-10T11:09:52.753Z,1.20
2022-10-10T11:12:28.790Z,1.20
2022-10-10T11:15:04.003Z,0.98
2022-10-10T11:17:37.125Z,1.10
2022-10-10T11:20:09.842Z,0.73
2022-10-10T11:22:46.413Z,1.02
2022-10-10T11:25:29.482Z,0.88
2022-10-10T11:28:35.283Z,1.02
2022-10-10T11:31:05.795Z,0.80
2022-10-10T11:33:57.420Z,0.98
2022-10-10T11:36:26.862Z,0.88
2022-10-10T11:38:58.205Z,1.00
2022-10-10T11:41:25.698Z,0.90
2022-10-10T11:44:02.265Z,1.20
2022-10-10T11:46:37.089Z,0.75
2022-10-10T11:49:10.111Z,0.80
2022-10-10T11:51:49.544Z,0.85
2022-10-10T11:54:24.229Z,1.08
2022-10-10T11:56:53.349Z,0.77
2022-10-10T11:59:29.536Z,1.00
2022-10-10T12:04:35.674Z,0.70
2022-10-10T12:07:09.397Z,1.08
2022-10-10T12:09:41.780Z,0.95
2022-10-10T12:12:15.842Z,1.08
2022-10-10T12:14:45.832Z,1.13
2022-10-10T12:17:25.545Z,0.65
2022-10-10T12:19:52.852Z,1.20
2022-10-10T12:22:28.571Z,1.10
2022-10-10T12:25:11.154Z,0.98
2022-10-10T12:28:01.746Z,1.20
2022-10-10T12:30:29.205Z,0.70
2022-10-10T12:32:56.843Z,1.00
2022-10-10T12:35:31.896Z,0.63
2022-10-10T12:38:28.509Z,0.70
2022-10-10T12:40:58.795Z,0.70
2022-10-10T12:43:36.819Z,1.00
2022-10-10T12:46:21.462Z,1.10
2022-10-10T12:48:57.943Z,0.93
2022-10-10T12:51:25.543Z,0.70
2022-10-10T12:53:56.306Z,0.70
2022-10-10T12:56:38.068Z,1.00
2022-10-10T12:59:06.856Z,0.80
2022-10-10T13:01:45.507Z,1.15
2022-10-10T13:04:15.854Z,0.90
2022-10-10T13:06:45.296Z,0.70
2022-10-10T13:09:17.570Z,0.80
2022-10-10T13:11:55.121Z,0.80
2022-10-10T13:14:22.638Z,0.80
2022-10-10T13:16:49.837Z,0.80
2022-10-10T13:19:18.670Z,0.70
2022-10-10T13:21:45.892Z,1.00
2022-10-10T13:24:17.092Z,0.70
2022-10-10T13:29:17.445Z,0.70
2022-10-10T13:42:37.329Z,0.70
2022-10-10T13:45:30.061Z,1.00
2022-10-10T13:48:10.976Z,1.08
2022-10-10T13:50:43.957Z,0.60
2022-10-10T13:53:26.060Z,0.85
2022-10-10T13:55:59.496Z,0.80
2022-10-10T13:58:27.521Z,0.93
2022-10-10T14:00:55.819Z,0.77
2022-10-10T14:03:23.464Z,0.90
2022-10-10T14:05:50.843Z,0.90
2022-10-10T14:08:20.102Z,0.90
2022-10-10T14:10:58.032Z,1.10
2022-10-10T14:13:25.639Z,1.20
2022-10-10T14:15:52.866Z,1.00
2022-10-10T14:18:21.948Z,1.15
2022-10-10T14:20:49.887Z,1.13
2022-10-10T14:23:17.345Z,1.17
2022-10-10T14:25:46.689Z,1.42
2022-10-10T14:28:18.342Z,1.08
2022-10-10T14:30:45.793Z,1.50
2022-10-10T14:33:13.612Z,1.00
2022-10-10T14:35:41.289Z,1.13
2022-10-10T14:38:08.716Z,0.93
2022-10-10T14:40:35.913Z,1.08
2022-10-10T14:43:03.037Z,1.40
2022-10-10T14:45:30.221Z,0.98
2022-10-10T14:47:57.422Z,1.10
2022-10-10T14:50:26.902Z,0.90
2022-10-10T14:52:57.032Z,1.10
2022-10-10T14:55:24.297Z,1.20
2022-10-10T14:57:51.445Z,0.85
2022-10-10T15:00:20.003Z,1.10
2022-10-10T15:02:47.324Z,1.00
2022-10-10T15:05:15.033Z,1.00
2022-10-10T15:07:42.421Z,1.23
2022-10-10T15:10:32.582Z,1.38
2022-10-10T15:12:57.668Z,1.10
2022-10-10T15:15:24.861Z,1.17
2022-10-10T15:17:51.977Z,1.00
2022-10-10T15:20:20.228Z,1.08
2022-10-10T15:22:47.483Z,1.40
2022-10-10T15:25:14.709Z,1.48
2022-10-10T15:27:41.921Z,0.90
2022-10-10T15:30:09.439Z,0.85
2022-10-10T15:32:40.147Z,2.33
2022-10-10T15:35:07.549Z,0.90
2022-10-10T15:37:34.966Z,1.13
2022-10-10T15:40:02.074Z,1.10
2022-10-10T15:42:29.365Z,1.10
2022-10-10T15:44:56.658Z,0.98
2022-10-10T15:47:23.889Z,0.80
2022-10-10T15:49:51.096Z,1.00
2022-10-10T15:52:19.964Z,0.95
2022-10-10T15:54:48.864Z,1.30
2022-10-10T15:57:18.679Z,1.00
2022-10-10T15:59:46.412Z,1.17
2022-10-10T16:02:13.728Z,0.90
2022-10-10T16:04:40.836Z,1.10
2022-10-10T16:09:55.610Z,1.17
2022-10-10T16:12:22.776Z,3.90
2022-10-10T16:14:49.962Z,1.40
2022-10-10T16:17:22.242Z,0.95
2022-10-10T16:19:50.614Z,2.75
2022-10-10T16:22:17.767Z,1.42
2022-10-10T16:24:58.294Z,1.10
2022-10-10T16:27:32.344Z,3.55
2022-10-10T16:29:59.458Z,1.50
2022-10-10T16:32:26.568Z,1.10
2022-10-10T16:34:53.732Z,1.52
2022-10-10T16:37:20.921Z,1.52
2022-10-10T16:39:48.021Z,1.42
2022-10-10T16:42:15.281Z,2.80
2022-10-10T16:44:42.964Z,1.88
2022-10-10T16:47:10.131Z,2.58
2022-10-10T16:49:37.410Z,2.40
2022-10-10T16:52:04.614Z,2.75
2022-10-10T16:54:31.718Z,1.83
2022-10-10T16:56:58.901Z,1.80
2022-10-10T16:59:26.147Z,2.20
2022-10-10T17:01:53.273Z,2.13
2022-10-10T17:04:20.515Z,2.05
2022-10-10T17:06:47.627Z,2.20
2022-10-10T17:09:17.002Z,2.35
2022-10-10T17:11:48.105Z,1.80
2022-10-10T17:14:18.409Z,1.90
2022-10-10T17:17:10.471Z,1.60
2022-10-10T17:19:33.130Z,1.85
2022-10-10T17:22:00.603Z,1.63
2022-10-10T17:24:27.818Z,1.90
2022-10-10T17:26:54.953Z,1.90
2022-10-10T17:29:23.694Z,2.05
2022-10-10T17:31:50.893Z,1.40
2022-10-10T17:34:18.009Z,1.40
2022-10-10T17:36:45.296Z,1.38
2022-10-10T17:39:12.459Z,1.65
2022-10-10T17:41:39.746Z,1.40
2022-10-10T17:44:10.803Z,1.50
2022-10-10T17:46:41.618Z,1.60
2022-10-10T17:49:10.410Z,2.97
2022-10-10T17:51:39.216Z,1.55
2022-10-10T17:54:06.596Z,1.73
2022-10-10T17:56:33.999Z,1.88
2022-10-10T17:59:01.909Z,2.13
2022-10-10T18:01:30.657Z,1.50
2022-10-10T18:03:58.273Z,1.30
2022-10-10T18:06:25.449Z,1.90
2022-10-10T18:08:53.696Z,1.55
2022-10-10T18:11:22.872Z,1.65
2022-10-10T18:13:50.265Z,1.38
2022-10-10T18:16:19.407Z,1.50
2022-10-10T18:18:51.044Z,1.38
2022-10-10T18:21:19.740Z,1.50
2022-10-10T18:23:47.004Z,1.30
2022-10-10T18:26:16.990Z,1.70
2022-10-10T18:28:44.711Z,1.35
2022-10-10T18:31:19.925Z,1.45
2022-10-10T18:33:47.685Z,1.20
2022-10-10T18:36:15.828Z,1.30
2022-10-10T18:38:43.120Z,1.60
2022-10-10T18:41:12.176Z,1.50
2022-10-10T18:43:39.826Z,1.45
2022-10-10T18:46:08.038Z,1.55
2022-10-10T18:48:36.073Z,2.13
2022-10-10T18:51:10.418Z,1.50
2022-10-10T18:53:42.147Z,1.35
2022-10-10T18:56:10.135Z,1.60
2022-10-10T18:58:37.629Z,1.75
2022-10-10T19:01:09.405Z,1.70
2022-10-10T19:03:37.221Z,1.50
2022-10-10T19:06:05.349Z,1.90
2022-10-10T19:08:32.506Z,1.40
2022-10-10T19:10:59.918Z,1.75
2022-10-10T19:13:27.354Z,1.85
2022-10-10T19:15:54.631Z,1.70
2022-10-10T19:18:24.136Z,1.30
2022-10-10T19:20:51.264Z,1.30
2022-10-10T19:23:19.672Z,1.60
2022-10-10T19:25:46.849Z,1.45
2022-10-10T19:28:14.017Z,1.30
2022-10-10T19:30:42.554Z,1.20
2022-10-10T19:33:09.904Z,1.10
2022-10-10T19:35:41.827Z,1.50
2022-10-10T19:38:10.325Z,1.35
2022-10-10T19:40:44.223Z,1.20
2022-10-10T19:43:11.549Z,1.10
2022-10-10T19:45:42.053Z,1.50
2022-10-10T19:48:09.218Z,1.40
2022-10-10T19:50:40.094Z,1.30
2022-10-10T19:53:07.669Z,1.40
2022-10-10T19:55:34.851Z,1.52
2022-10-10T19:58:02.983Z,1.58
2022-10-10T20:00:30.350Z,1.33
2022-10-10T20:02:57.493Z,1.13
2022-10-10T20:05:24.738Z,1.42
2022-10-10T20:07:52.183Z,1.27
2022-10-10T20:10:19.743Z,1.13
2022-10-10T20:12:47.431Z,1.17
2022-10-10T20:15:14.813Z,1.17
2022-10-10T20:17:42.134Z,1.20
2022-10-10T20:20:09.501Z,1.33
2022-10-10T20:22:36.601Z,1.35
2022-10-10T20:25:04.691Z,1.20
2022-10-10T20:27:31.894Z,1.10
2022-10-10T20:29:59.510Z,1.38
2022-10-10T20:32:26.619Z,1.10
2022-10-10T20:34:53.794Z,1.40
2022-10-10T20:37:20.968Z,1.20
2022-10-10T20:39:48.089Z,0.88
2022-10-10T20:42:15.344Z,1.20
2022-10-10T20:44:42.446Z,1.20
2022-10-10T20:47:09.580Z,1.10
2022-10-10T20:49:36.881Z,1.27
2022-10-10T20:52:04.034Z,1.38
2022-10-10T20:54:31.152Z,1.10
2022-10-10T20:56:58.423Z,1.00
2022-10-10T20:59:25.741Z,1.27
2022-10-10T21:01:52.917Z,1.05
2022-10-10T21:04:20.277Z,1.10
2022-10-10T21:06:48.793Z,1.42
2022-10-10T21:09:16.374Z,1.30
2022-10-10T21:11:46.510Z,1.40
2022-10-10T21:14:15.959Z,0.85
2022-10-10T21:16:43.147Z,1.60
2022-10-10T21:19:11.455Z,1.35
2022-10-10T21:21:38.875Z,1.20
2022-10-10T21:24:07.299Z,1.13
2022-10-10T21:26:34.762Z,1.30
2022-10-10T21:29:01.944Z,1.40
2022-10-10T21:31:30.826Z,1.00
2022-10-10T21:33:58.095Z,1.33
2022-10-10T21:36:26.643Z,1.23
2022-10-10T21:38:54.697Z,1.35
2022-10-10T21:41:22.540Z,1.20
2022-10-10T21:43:54.817Z,1.17
2022-10-10T21:46:23.805Z,1.40
2022-10-10T21:48:52.244Z,1.20
2022-10-10T21:51:19.573Z,1.38
2022-10-10T21:53:46.874Z,1.27
2022-10-10T21:56:14.790Z,1.58
2022-10-10T21:58:42.625Z,1.20
2022-10-10T22:01:09.994Z,1.60
2022-10-10T22:03:37.257Z,1.50
2022-10-10T22:06:05.934Z,1.40
2022-10-10T22:08:33.798Z,1.60
2022-10-10T22:11:05.331Z,1.38
2022-10-10T22:13:33.037Z,1.60
2022-10-10T22:16:00.688Z,1.30
2022-10-10T22:18:27.946Z,1.67
2022-10-10T22:20:55.105Z,1.65
2022-10-10T22:23:22.366Z,1.75
2022-10-10T22:25:50.365Z,1.40
2022-10-10T22:28:17.768Z,1.30
2022-10-10T22:30:45.682Z,1.55
2022-10-10T22:33:13.052Z,1.73
2022-10-10T22:35:40.214Z,1.90
2022-10-10T22:38:07.484Z,1.90
2022-10-10T22:40:34.677Z,1.95
2022-10-10T22:43:02.052Z,1.42
2022-10-10T22:45:29.437Z,2.17
2022-10-10T22:47:56.628Z,1.98
2022-10-10T22:50:23.775Z,2.15
2022-10-10T22:52:51.017Z,1.85
2022-10-10T22:55:18.867Z,2.15
2022-10-10T22:57:46.302Z,1.90
2022-10-10T23:00:13.873Z,2.03
2022-10-10T23:02:41.022Z,2.50
2022-10-10T23:05:08.463Z,1.85
2022-10-10T23:07:35.806Z,2.33
2022-10-10T23:10:02.999Z,2.40
2022-10-10T23:12:30.109Z,2.47
2022-10-10T23:14:57.297Z,2.47
2022-10-10T23:17:24.427Z,2.65
2022-10-10T23:19:51.565Z,2.67
2022-10-10T23:22:18.732Z,3.00
2022-10-10T23:24:47.019Z,2.70
2022-10-10T23:27:14.147Z,3.15
2022-10-10T23:29:41.324Z,2.90
2022-10-10T23:32:08.442Z,3.15
2022-10-10T23:34:35.615Z,3.03
2022-10-10T23:37:02.989Z,2.92
2022-10-10T23:39:30.124Z,3.30
2022-10-10T23:41:57.295Z,3.15
2022-10-10T23:44:24.588Z,3.80
2022-10-10T23:46:51.756Z,3.40
2022-10-10T23:49:18.857Z,3.90
2022-10-10T23:51:46.129Z,4.50
2022-10-10T23:54:13.244Z,3.47
2022-10-10T23:56:41.111Z,3.65
2022-10-10T23:59:08.371Z,4.15
